EDDPEDDW

Guest
Details From EDDP - Leipzig-halle
To EDDW - Bremen
Flight Number -
Tags Generated
Created
Modified
Stats Distance 159 nm / 295 km
Max Altitude 0 ft / 0 m
Waypoints 2
Social Downloads 3
Likes 0
Share VATSIM

Download

Looking for another format? Having issues loading an existing format? Contact us
Advertisement - Login to hide

Notes

Generated

Route

EDDP EDDW

ID Type Via Altitude Latitude Longitude Leg Dist Tot Dist Heading (true) Name
O EDDP APT - 0 ft / 0 m 51.41160˚ 12.20459˚ - 0 nm - -
O EDDW APT - 0 ft / 0 m 53.04257˚ 8.78424˚ 159 nm 159 nm 309° / 307° -

Altitude Profile

Advertisement - Login to hide

EDDP

Details ICAO EDDP (LEJ)
Name Leipzig-Halle
Region Germany - Civil
Timezone Europe/Berlin (UTC+1.0)
Stats Elevation 464 ft / 141 m (AMSL)
Location 51.422631° 12.236042°
Runways 2
Magnetic Variation 3.395° E

METAR

EDDP 121820Z 25013KT 9999 BKN033 03/M01 Q1011 NOSIG

Decode

TAF

TAF EDDP 121700Z 1218/1318 24020G30KT 9999 SCT030 BECMG 1218/1220 22011KT BECMG 1307/1309 19015G25KT

Decode

Departure Runways

ID Width Length Bearing (true) Bearing (mag) Surface Threshold Offset Overrun Length
08L 148 ft / 45 m 11,776 ft / 3,589 m 85.70° 82.31° Concrete 0 ft / 0 m 0 ft / 0 m
08R 197 ft / 60 m 11,777 ft / 3,590 m 85.68° 82.29° Concrete 0 ft / 0 m 0 ft / 0 m
26L 197 ft / 60 m 11,777 ft / 3,590 m 265.72° 262.33° Concrete 0 ft / 0 m 0 ft / 0 m
26R 148 ft / 45 m 11,776 ft / 3,589 m 265.74° 262.35° Concrete 0 ft / 0 m 0 ft / 0 m

EDDW

Details ICAO EDDW (BRE)
Name Bremen
Region Germany - Civil
Timezone Europe/Berlin (UTC+1.0)
Stats Elevation 14 ft / 4 m (AMSL)
Location 53.045715° 8.789003°
Runways 2
Magnetic Variation 2.403° E

METAR

EDDW 121820Z 24010KT 9999 FEW040 02/01 Q1010 R88/290095 NOSIG

Decode

TAF

TAF TAF EDDW 121700Z 1218/1318 25008KT 9999 FEW007 TEMPO 1218/1305 BKN007 BECMG 1308/1310 18012KT BECMG 1309/1311 OVC005 TEMPO 1309/1317 20015G25KT 3000 -RASN OVC003

Decode

Destination Runways

ID Width Length Bearing (true) Bearing (mag) Surface Threshold Offset Overrun Length
05 75 ft / 23 m 2,298 ft / 700 m 51.18° 48.78° Asphalt 0 ft / 0 m 0 ft / 0 m
09 151 ft / 46 m 8,616 ft / 2,626 m 87.78° 85.38° Asphalt 945 ft / 288 m 0 ft / 0 m
23 75 ft / 23 m 2,298 ft / 700 m 231.19° 228.79° Asphalt 0 ft / 0 m 0 ft / 0 m
27 151 ft / 46 m 8,616 ft / 2,626 m 267.82° 265.42° Asphalt 984 ft / 300 m 0 ft / 0 m

Approach Navaids

Runway Type Ident Frequency Range Bearing (true) Bearing (mag) Slope Elevation
09 Localiser IBRE 110.30 MHz 18 nm / 33 km 87.77° 85.37° - 13 ft / 4 m (AMSL)
09 Glidescope IBRE 110.30 MHz 10 nm / 19 km 87.80° 85.40° 3.00° 13 ft / 4 m (AMSL)
27 Localiser IBRW 110.90 MHz 18 nm / 33 km 267.87° 265.47° - 14 ft / 4 m (AMSL)
27 Glidescope IBRW 110.90 MHz 10 nm / 19 km 267.80° 265.40° 3.00° 14 ft / 4 m (AMSL)

Popular Alternatives